sensor_id;sensor_type;location;lat;lon;timestamp;P1;durP1;ratioP1;P2;durP2;ratioP2
2053;SDS011;1032;52.542;13.440;2022-07-29T00:00:19;7.57;;;3.30;;
2053;SDS011;1032;52.542;13.440;2022-07-29T00:02:46;10.50;;;3.13;;
2053;SDS011;1032;52.542;13.440;2022-07-29T00:05:12;5.27;;;3.30;;
2053;SDS011;1032;52.542;13.440;2022-07-29T00:07:39;5.27;;;3.90;;
2053;SDS011;1032;52.542;13.440;2022-07-29T00:10:06;7.53;;;3.53;;
2053;SDS011;1032;52.542;13.440;2022-07-29T00:12:34;5.50;;;3.80;;
2053;SDS011;1032;52.542;13.440;2022-07-29T00:15:02;6.23;;;4.30;;
2053;SDS011;1032;52.542;13.440;2022-07-29T00:17:29;11.07;;;3.90;;
2053;SDS011;1032;52.542;13.440;2022-07-29T00:19:55;6.87;;;3.63;;
2053;SDS011;1032;52.542;13.440;2022-07-29T00:22:22;7.80;;;4.53;;
2053;SDS011;1032;52.542;13.440;2022-07-29T00:24:49;7.13;;;4.63;;
2053;SDS011;1032;52.542;13.440;2022-07-29T00:27:15;7.57;;;4.73;;
2053;SDS011;1032;52.542;13.440;2022-07-29T00:29:44;16.10;;;6.40;;
2053;SDS011;1032;52.542;13.440;2022-07-29T00:32:11;8.50;;;4.47;;
2053;SDS011;1032;52.542;13.440;2022-07-29T00:34:37;6.10;;;3.93;;
2053;SDS011;1032;52.542;13.440;2022-07-29T00:37:22;6.40;;;4.30;;
2053;SDS011;1032;52.542;13.440;2022-07-29T00:39:48;8.63;;;4.87;;
2053;SDS011;1032;52.542;13.440;2022-07-29T00:42:15;5.03;;;3.87;;
2053;SDS011;1032;52.542;13.440;2022-07-29T00:44:43;8.13;;;4.53;;
2053;SDS011;1032;52.542;13.440;2022-07-29T00:47:10;6.10;;;4.17;;
2053;SDS011;1032;52.542;13.440;2022-07-29T00:49:37;6.17;;;4.40;;
2053;SDS011;1032;52.542;13.440;2022-07-29T00:52:05;6.57;;;3.80;;
2053;SDS011;1032;52.542;13.440;2022-07-29T00:54:34;6.00;;;4.13;;
2053;SDS011;1032;52.542;13.440;2022-07-29T00:57:01;7.47;;;4.10;;
2053;SDS011;1032;52.542;13.440;2022-07-29T00:59:28;6.03;;;3.80;;
2053;SDS011;1032;52.542;13.440;2022-07-29T01:01:56;7.03;;;4.37;;
2053;SDS011;1032;52.542;13.440;2022-07-29T01:04:22;4.80;;;4.00;;
2053;SDS011;1032;52.542;13.440;2022-07-29T01:06:49;5.53;;;3.87;;
2053;SDS011;1032;52.542;13.440;2022-07-29T01:09:17;4.53;;;3.20;;
2053;SDS011;1032;52.542;13.440;2022-07-29T01:11:44;9.13;;;4.57;;
2053;SDS011;1032;52.542;13.440;2022-07-29T01:14:13;7.30;;;4.40;;
2053;SDS011;1032;52.542;13.440;2022-07-29T01:16:42;7.17;;;4.00;;
2053;SDS011;1032;52.542;13.440;2022-07-29T01:19:17;5.33;;;3.67;;
2053;SDS011;1032;52.542;13.440;2022-07-29T01:21:57;6.20;;;4.57;;
2053;SDS011;1032;52.542;13.440;2022-07-29T01:24:39;7.43;;;4.10;;
2053;SDS011;1032;52.542;13.440;2022-07-29T01:27:26;9.67;;;4.90;;
2053;SDS011;1032;52.542;13.440;2022-07-29T01:30:06;6.73;;;4.00;;
2053;SDS011;1032;52.542;13.440;2022-07-29T01:32:37;10.47;;;4.37;;
2053;SDS011;1032;52.542;13.440;2022-07-29T01:35:06;5.20;;;4.10;;
2053;SDS011;1032;52.542;13.440;2022-07-29T01:37:37;7.70;;;4.70;;
2053;SDS011;1032;52.542;13.440;2022-07-29T01:40:19;10.27;;;5.37;;
2053;SDS011;1032;52.542;13.440;2022-07-29T01:42:50;10.90;;;5.03;;
2053;SDS011;1032;52.542;13.440;2022-07-29T01:45:23;6.50;;;5.07;;
2053;SDS011;1032;52.542;13.440;2022-07-29T01:48:00;8.03;;;4.50;;
2053;SDS011;1032;52.542;13.440;2022-07-29T01:50:30;6.23;;;4.50;;
2053;SDS011;1032;52.542;13.440;2022-07-29T01:53:01;7.33;;;4.57;;
2053;SDS011;1032;52.542;13.440;2022-07-29T01:55:31;9.80;;;4.63;;
2053;SDS011;1032;52.542;13.440;2022-07-29T01:58:01;6.70;;;4.10;;
2053;SDS011;1032;52.542;13.440;2022-07-29T02:00:31;7.07;;;4.23;;
2053;SDS011;1032;52.542;13.440;2022-07-29T02:03:00;8.20;;;4.27;;
2053;SDS011;1032;52.542;13.440;2022-07-29T02:05:31;6.60;;;4.43;;
2053;SDS011;1032;52.542;13.440;2022-07-29T02:07:59;6.47;;;4.47;;
2053;SDS011;1032;52.542;13.440;2022-07-29T02:10:28;12.53;;;3.93;;
2053;SDS011;1032;52.542;13.440;2022-07-29T02:12:57;6.00;;;3.50;;
2053;SDS011;1032;52.542;13.440;2022-07-29T02:15:26;6.90;;;3.50;;
2053;SDS011;1032;52.542;13.440;2022-07-29T02:17:56;6.90;;;3.63;;
2053;SDS011;1032;52.542;13.440;2022-07-29T02:20:27;6.33;;;4.13;;
2053;SDS011;1032;52.542;13.440;2022-07-29T02:22:54;9.67;;;4.50;;
2053;SDS011;1032;52.542;13.440;2022-07-29T02:25:23;8.20;;;4.23;;
2053;SDS011;1032;52.542;13.440;2022-07-29T02:27:50;5.27;;;3.60;;
2053;SDS011;1032;52.542;13.440;2022-07-29T02:30:18;7.10;;;3.83;;
2053;SDS011;1032;52.542;13.440;2022-07-29T02:32:46;10.60;;;3.80;;
2053;SDS011;1032;52.542;13.440;2022-07-29T02:35:16;5.30;;;3.80;;
2053;SDS011;1032;52.542;13.440;2022-07-29T02:37:44;6.00;;;3.70;;
2053;SDS011;1032;52.542;13.440;2022-07-29T02:40:33;6.40;;;4.10;;
2053;SDS011;1032;52.542;13.440;2022-07-29T02:43:02;9.20;;;4.07;;
2053;SDS011;1032;52.542;13.440;2022-07-29T02:45:30;7.67;;;3.33;;
2053;SDS011;1032;52.542;13.440;2022-07-29T02:47:57;6.60;;;3.53;;
2053;SDS011;1032;52.542;13.440;2022-07-29T02:50:27;7.80;;;3.70;;
2053;SDS011;1032;52.542;13.440;2022-07-29T02:52:59;10.80;;;4.00;;
2053;SDS011;1032;52.542;13.440;2022-07-29T02:55:31;8.33;;;3.70;;
2053;SDS011;1032;52.542;13.440;2022-07-29T02:58:01;8.37;;;3.93;;
2053;SDS011;1032;52.542;13.440;2022-07-29T03:00:29;7.43;;;3.43;;
2053;SDS011;1032;52.542;13.440;2022-07-29T03:02:59;5.17;;;3.57;;
2053;SDS011;1032;52.542;13.440;2022-07-29T03:05:29;5.30;;;3.40;;
2053;SDS011;1032;52.542;13.440;2022-07-29T03:07:57;5.80;;;3.93;;
2053;SDS011;1032;52.542;13.440;2022-07-29T03:10:27;10.07;;;4.27;;
2053;SDS011;1032;52.542;13.440;2022-07-29T03:12:54;8.90;;;3.70;;
2053;SDS011;1032;52.542;13.440;2022-07-29T03:15:22;6.40;;;3.77;;
2053;SDS011;1032;52.542;13.440;2022-07-29T03:17:49;7.70;;;3.90;;
2053;SDS011;1032;52.542;13.440;2022-07-29T03:20:16;8.80;;;3.50;;
2053;SDS011;1032;52.542;13.440;2022-07-29T03:22:45;7.43;;;3.20;;
2053;SDS011;1032;52.542;13.440;2022-07-29T03:25:12;8.40;;;3.60;;
2053;SDS011;1032;52.542;13.440;2022-07-29T03:27:40;6.70;;;3.37;;
2053;SDS011;1032;52.542;13.440;2022-07-29T03:30:08;6.57;;;3.60;;
2053;SDS011;1032;52.542;13.440;2022-07-29T03:32:37;9.10;;;3.30;;
2053;SDS011;1032;52.542;13.440;2022-07-29T03:35:12;4.90;;;4.30;;
2053;SDS011;1032;52.542;13.440;2022-07-29T03:37:39;6.60;;;3.57;;
2053;SDS011;1032;52.542;13.440;2022-07-29T03:40:07;9.23;;;3.57;;
2053;SDS011;1032;52.542;13.440;2022-07-29T03:42:36;5.83;;;3.27;;
2053;SDS011;1032;52.542;13.440;2022-07-29T03:45:07;6.93;;;3.50;;
2053;SDS011;1032;52.542;13.440;2022-07-29T03:47:37;6.50;;;4.47;;
2053;SDS011;1032;52.542;13.440;2022-07-29T03:50:07;5.47;;;3.00;;
2053;SDS011;1032;52.542;13.440;2022-07-29T03:52:36;6.90;;;4.37;;
2053;SDS011;1032;52.542;13.440;2022-07-29T03:55:14;4.93;;;3.80;;
2053;SDS011;1032;52.542;13.440;2022-07-29T03:57:42;7.03;;;3.33;;
2053;SDS011;1032;52.542;13.440;2022-07-29T04:00:09;5.50;;;3.10;;
2053;SDS011;1032;52.542;13.440;2022-07-29T04:02:37;9.13;;;4.23;;
2053;SDS011;1032;52.542;13.440;2022-07-29T04:05:05;8.23;;;3.90;;
2053;SDS011;1032;52.542;13.440;2022-07-29T04:07:38;9.00;;;3.47;;
2053;SDS011;1032;52.542;13.440;2022-07-29T04:10:05;6.73;;;3.20;;
2053;SDS011;1032;52.542;13.440;2022-07-29T04:12:34;8.70;;;3.87;;
2053;SDS011;1032;52.542;13.440;2022-07-29T04:15:01;4.33;;;3.17;;
2053;SDS011;1032;52.542;13.440;2022-07-29T04:17:27;6.13;;;3.77;;
2053;SDS011;1032;52.542;13.440;2022-07-29T04:19:54;6.83;;;4.20;;
2053;SDS011;1032;52.542;13.440;2022-07-29T04:22:21;6.30;;;3.13;;
2053;SDS011;1032;52.542;13.440;2022-07-29T04:24:47;5.10;;;3.40;;
2053;SDS011;1032;52.542;13.440;2022-07-29T04:27:14;6.10;;;3.20;;
2053;SDS011;1032;52.542;13.440;2022-07-29T04:29:42;9.70;;;3.53;;
2053;SDS011;1032;52.542;13.440;2022-07-29T04:32:08;6.00;;;2.97;;
2053;SDS011;1032;52.542;13.440;2022-07-29T04:34:35;9.73;;;3.67;;
2053;SDS011;1032;52.542;13.440;2022-07-29T04:37:01;4.27;;;3.00;;
2053;SDS011;1032;52.542;13.440;2022-07-29T04:39:28;6.57;;;3.37;;
2053;SDS011;1032;52.542;13.440;2022-07-29T04:41:55;4.67;;;3.10;;
2053;SDS011;1032;52.542;13.440;2022-07-29T04:44:21;10.73;;;3.57;;
2053;SDS011;1032;52.542;13.440;2022-07-29T04:46:49;6.40;;;3.43;;
2053;SDS011;1032;52.542;13.440;2022-07-29T04:49:16;7.40;;;3.60;;
2053;SDS011;1032;52.542;13.440;2022-07-29T04:51:42;10.20;;;3.50;;
2053;SDS011;1032;52.542;13.440;2022-07-29T04:54:09;5.00;;;3.50;;
2053;SDS011;1032;52.542;13.440;2022-07-29T04:56:36;8.73;;;3.97;;
2053;SDS011;1032;52.542;13.440;2022-07-29T04:59:03;6.37;;;3.30;;
2053;SDS011;1032;52.542;13.440;2022-07-29T05:01:31;7.60;;;3.23;;
2053;SDS011;1032;52.542;13.440;2022-07-29T05:03:59;5.40;;;3.57;;
2053;SDS011;1032;52.542;13.440;2022-07-29T05:06:26;6.73;;;3.60;;
2053;SDS011;1032;52.542;13.440;2022-07-29T05:08:52;9.70;;;4.73;;
2053;SDS011;1032;52.542;13.440;2022-07-29T05:11:19;5.13;;;3.17;;
2053;SDS011;1032;52.542;13.440;2022-07-29T05:13:46;9.87;;;4.63;;
2053;SDS011;1032;52.542;13.440;2022-07-29T05:16:13;4.73;;;3.07;;
2053;SDS011;1032;52.542;13.440;2022-07-29T05:18:39;6.83;;;3.73;;
2053;SDS011;1032;52.542;13.440;2022-07-29T05:21:08;6.33;;;3.87;;
2053;SDS011;1032;52.542;13.440;2022-07-29T05:23:35;7.50;;;3.63;;
2053;SDS011;1032;52.542;13.440;2022-07-29T05:26:19;8.13;;;3.73;;
2053;SDS011;1032;52.542;13.440;2022-07-29T05:28:46;4.93;;;3.50;;
2053;SDS011;1032;52.542;13.440;2022-07-29T05:31:13;5.77;;;3.50;;
2053;SDS011;1032;52.542;13.440;2022-07-29T05:33:40;8.50;;;3.63;;
2053;SDS011;1032;52.542;13.440;2022-07-29T05:36:26;7.57;;;3.27;;
2053;SDS011;1032;52.542;13.440;2022-07-29T05:38:53;7.30;;;3.23;;
2053;SDS011;1032;52.542;13.440;2022-07-29T05:41:20;5.87;;;3.40;;
2053;SDS011;1032;52.542;13.440;2022-07-29T05:43:46;4.97;;;2.80;;
2053;SDS011;1032;52.542;13.440;2022-07-29T05:46:13;8.63;;;3.63;;
2053;SDS011;1032;52.542;13.440;2022-07-29T05:48:40;8.30;;;3.60;;
2053;SDS011;1032;52.542;13.440;2022-07-29T05:51:06;8.23;;;4.00;;
2053;SDS011;1032;52.542;13.440;2022-07-29T05:53:34;15.00;;;4.40;;
2053;SDS011;1032;52.542;13.440;2022-07-29T05:56:02;5.33;;;3.30;;
2053;SDS011;1032;52.542;13.440;2022-07-29T05:58:30;9.13;;;3.40;;
2053;SDS011;1032;52.542;13.440;2022-07-29T06:00:56;6.90;;;3.40;;
2053;SDS011;1032;52.542;13.440;2022-07-29T06:03:24;10.43;;;3.60;;
2053;SDS011;1032;52.542;13.440;2022-07-29T06:05:50;8.60;;;3.73;;
2053;SDS011;1032;52.542;13.440;2022-07-29T06:08:18;7.80;;;3.77;;
2053;SDS011;1032;52.542;13.440;2022-07-29T06:10:46;4.90;;;3.47;;
2053;SDS011;1032;52.542;13.440;2022-07-29T06:13:13;10.50;;;3.90;;
2053;SDS011;1032;52.542;13.440;2022-07-29T06:15:40;4.73;;;3.40;;
2053;SDS011;1032;52.542;13.440;2022-07-29T06:18:07;9.90;;;3.73;;
2053;SDS011;1032;52.542;13.440;2022-07-29T06:20:35;8.00;;;4.00;;
2053;SDS011;1032;52.542;13.440;2022-07-29T06:23:02;8.17;;;3.70;;
2053;SDS011;1032;52.542;13.440;2022-07-29T06:25:29;13.93;;;4.40;;
2053;SDS011;1032;52.542;13.440;2022-07-29T06:27:58;5.77;;;3.50;;
2053;SDS011;1032;52.542;13.440;2022-07-29T06:30:25;5.83;;;3.53;;
2053;SDS011;1032;52.542;13.440;2022-07-29T06:32:53;8.77;;;3.07;;
2053;SDS011;1032;52.542;13.440;2022-07-29T06:35:20;12.20;;;3.33;;
2053;SDS011;1032;52.542;13.440;2022-07-29T06:37:47;9.63;;;4.10;;
2053;SDS011;1032;52.542;13.440;2022-07-29T06:40:14;10.03;;;3.43;;
2053;SDS011;1032;52.542;13.440;2022-07-29T06:42:59;6.43;;;3.27;;
2053;SDS011;1032;52.542;13.440;2022-07-29T06:45:26;5.83;;;3.00;;
2053;SDS011;1032;52.542;13.440;2022-07-29T06:47:52;9.17;;;3.80;;
2053;SDS011;1032;52.542;13.440;2022-07-29T06:50:19;7.60;;;3.10;;
2053;SDS011;1032;52.542;13.440;2022-07-29T06:52:46;8.03;;;3.57;;
2053;SDS011;1032;52.542;13.440;2022-07-29T06:55:13;8.00;;;3.00;;
2053;SDS011;1032;52.542;13.440;2022-07-29T06:57:40;17.63;;;5.07;;
2053;SDS011;1032;52.542;13.440;2022-07-29T07:00:09;6.80;;;3.27;;
2053;SDS011;1032;52.542;13.440;2022-07-29T07:02:37;4.93;;;2.83;;
2053;SDS011;1032;52.542;13.440;2022-07-29T07:05:03;6.90;;;2.77;;
2053;SDS011;1032;52.542;13.440;2022-07-29T07:07:31;13.67;;;3.63;;
2053;SDS011;1032;52.542;13.440;2022-07-29T07:09:57;11.13;;;3.40;;
2053;SDS011;1032;52.542;13.440;2022-07-29T07:12:24;8.07;;;3.13;;
2053;SDS011;1032;52.542;13.440;2022-07-29T07:14:51;6.40;;;2.70;;
2053;SDS011;1032;52.542;13.440;2022-07-29T07:17:19;5.50;;;3.83;;
2053;SDS011;1032;52.542;13.440;2022-07-29T07:19:45;6.00;;;3.03;;
2053;SDS011;1032;52.542;13.440;2022-07-29T07:22:12;14.50;;;3.77;;
2053;SDS011;1032;52.542;13.440;2022-07-29T07:24:38;6.43;;;2.70;;
2053;SDS011;1032;52.542;13.440;2022-07-29T07:27:05;9.40;;;3.80;;
2053;SDS011;1032;52.542;13.440;2022-07-29T07:29:32;8.10;;;3.27;;
2053;SDS011;1032;52.542;13.440;2022-07-29T07:31:58;9.03;;;3.10;;
2053;SDS011;1032;52.542;13.440;2022-07-29T07:34:26;9.47;;;3.00;;
2053;SDS011;1032;52.542;13.440;2022-07-29T07:36:53;18.80;;;2.90;;
2053;SDS011;1032;52.542;13.440;2022-07-29T07:39:19;7.03;;;2.60;;
2053;SDS011;1032;52.542;13.440;2022-07-29T07:41:46;10.63;;;3.10;;
2053;SDS011;1032;52.542;13.440;2022-07-29T07:44:13;7.07;;;2.87;;
2053;SDS011;1032;52.542;13.440;2022-07-29T07:46:40;8.73;;;3.20;;
2053;SDS011;1032;52.542;13.440;2022-07-29T07:49:06;8.13;;;3.20;;
2053;SDS011;1032;52.542;13.440;2022-07-29T07:51:34;7.30;;;2.70;;
2053;SDS011;1032;52.542;13.440;2022-07-29T07:54:01;7.60;;;2.50;;
2053;SDS011;1032;52.542;13.440;2022-07-29T07:56:27;5.83;;;2.83;;
2053;SDS011;1032;52.542;13.440;2022-07-29T07:58:54;9.23;;;2.83;;
2053;SDS011;1032;52.542;13.440;2022-07-29T08:01:20;3.43;;;1.93;;
2053;SDS011;1032;52.542;13.440;2022-07-29T08:03:48;7.13;;;2.23;;
2053;SDS011;1032;52.542;13.440;2022-07-29T08:06:15;6.70;;;2.80;;
2053;SDS011;1032;52.542;13.440;2022-07-29T08:08:43;10.37;;;3.60;;
2053;SDS011;1032;52.542;13.440;2022-07-29T08:11:09;14.13;;;2.23;;
2053;SDS011;1032;52.542;13.440;2022-07-29T08:13:37;5.23;;;2.43;;
2053;SDS011;1032;52.542;13.440;2022-07-29T08:16:04;10.27;;;2.87;;
2053;SDS011;1032;52.542;13.440;2022-07-29T08:18:38;6.10;;;2.00;;
2053;SDS011;1032;52.542;13.440;2022-07-29T08:21:06;6.47;;;2.80;;
2053;SDS011;1032;52.542;13.440;2022-07-29T08:23:33;5.93;;;2.27;;
2053;SDS011;1032;52.542;13.440;2022-07-29T08:26:04;7.40;;;2.30;;
2053;SDS011;1032;52.542;13.440;2022-07-29T08:28:35;13.30;;;3.00;;
2053;SDS011;1032;52.542;13.440;2022-07-29T08:31:02;7.23;;;2.60;;
2053;SDS011;1032;52.542;13.440;2022-07-29T08:33:28;5.70;;;2.50;;
2053;SDS011;1032;52.542;13.440;2022-07-29T08:35:58;8.43;;;2.07;;
2053;SDS011;1032;52.542;13.440;2022-07-29T08:38:25;9.17;;;2.50;;
2053;SDS011;1032;52.542;13.440;2022-07-29T08:40:52;5.40;;;2.50;;
2053;SDS011;1032;52.542;13.440;2022-07-29T08:43:30;6.43;;;3.30;;
2053;SDS011;1032;52.542;13.440;2022-07-29T08:46:12;11.63;;;3.50;;
2053;SDS011;1032;52.542;13.440;2022-07-29T08:48:39;4.37;;;2.20;;
2053;SDS011;1032;52.542;13.440;2022-07-29T08:51:07;5.30;;;2.00;;
2053;SDS011;1032;52.542;13.440;2022-07-29T08:53:40;4.93;;;2.50;;
2053;SDS011;1032;52.542;13.440;2022-07-29T08:56:07;8.33;;;2.70;;
2053;SDS011;1032;52.542;13.440;2022-07-29T08:58:38;3.93;;;2.30;;
2053;SDS011;1032;52.542;13.440;2022-07-29T09:01:05;7.47;;;2.53;;
2053;SDS011;1032;52.542;13.440;2022-07-29T09:03:34;10.90;;;2.30;;
2053;SDS011;1032;52.542;13.440;2022-07-29T09:06:04;6.60;;;2.20;;
2053;SDS011;1032;52.542;13.440;2022-07-29T09:08:31;4.27;;;2.40;;
2053;SDS011;1032;52.542;13.440;2022-07-29T09:11:00;4.60;;;2.63;;
2053;SDS011;1032;52.542;13.440;2022-07-29T09:13:28;8.40;;;2.40;;
2053;SDS011;1032;52.542;13.440;2022-07-29T09:15:56;6.03;;;2.20;;
2053;SDS011;1032;52.542;13.440;2022-07-29T09:18:35;5.97;;;2.80;;
2053;SDS011;1032;52.542;13.440;2022-07-29T09:21:03;9.27;;;2.30;;
2053;SDS011;1032;52.542;13.440;2022-07-29T09:23:59;10.97;;;3.10;;
2053;SDS011;1032;52.542;13.440;2022-07-29T09:26:27;5.00;;;1.90;;
2053;SDS011;1032;52.542;13.440;2022-07-29T09:28:55;7.40;;;2.57;;
2053;SDS011;1032;52.542;13.440;2022-07-29T09:31:26;3.37;;;2.40;;
2053;SDS011;1032;52.542;13.440;2022-07-29T09:33:58;5.53;;;2.63;;
2053;SDS011;1032;52.542;13.440;2022-07-29T09:36:26;3.73;;;2.27;;
2053;SDS011;1032;52.542;13.440;2022-07-29T09:38:56;4.27;;;2.73;;
2053;SDS011;1032;52.542;13.440;2022-07-29T09:41:24;6.47;;;2.60;;
2053;SDS011;1032;52.542;13.440;2022-07-29T09:43:55;4.97;;;2.47;;
2053;SDS011;1032;52.542;13.440;2022-07-29T09:46:22;3.07;;;2.40;;
2053;SDS011;1032;52.542;13.440;2022-07-29T09:51:43;11.20;;;2.70;;
2053;SDS011;1032;52.542;13.440;2022-07-29T09:54:23;6.20;;;2.40;;
2053;SDS011;1032;52.542;13.440;2022-07-29T09:56:52;4.00;;;2.00;;
2053;SDS011;1032;52.542;13.440;2022-07-29T09:59:20;6.40;;;2.10;;
2053;SDS011;1032;52.542;13.440;2022-07-29T10:01:51;5.30;;;2.17;;
2053;SDS011;1032;52.542;13.440;2022-07-29T10:04:18;2.90;;;2.00;;
2053;SDS011;1032;52.542;13.440;2022-07-29T10:06:56;3.33;;;2.00;;
2053;SDS011;1032;52.542;13.440;2022-07-29T10:09:24;5.87;;;2.03;;
2053;SDS011;1032;52.542;13.440;2022-07-29T10:12:04;3.97;;;2.00;;
2053;SDS011;1032;52.542;13.440;2022-07-29T10:14:35;9.60;;;2.50;;
2053;SDS011;1032;52.542;13.440;2022-07-29T10:17:04;5.27;;;2.20;;
2053;SDS011;1032;52.542;13.440;2022-07-29T10:19:32;10.27;;;1.90;;
2053;SDS011;1032;52.542;13.440;2022-07-29T10:22:02;3.20;;;1.90;;
2053;SDS011;1032;52.542;13.440;2022-07-29T10:24:31;2.83;;;1.60;;
2053;SDS011;1032;52.542;13.440;2022-07-29T10:26:59;9.70;;;2.07;;
2053;SDS011;1032;52.542;13.440;2022-07-29T10:29:28;3.40;;;1.80;;
2053;SDS011;1032;52.542;13.440;2022-07-29T10:34:57;5.53;;;1.93;;
2053;SDS011;1032;52.542;13.440;2022-07-29T10:37:43;3.30;;;1.70;;
2053;SDS011;1032;52.542;13.440;2022-07-29T10:40:22;3.90;;;2.00;;
2053;SDS011;1032;52.542;13.440;2022-07-29T10:43:16;5.60;;;2.80;;
2053;SDS011;1032;52.542;13.440;2022-07-29T10:45:45;6.10;;;2.30;;
2053;SDS011;1032;52.542;13.440;2022-07-29T10:48:14;2.60;;;1.90;;
2053;SDS011;1032;52.542;13.440;2022-07-29T10:50:54;4.50;;;1.70;;
2053;SDS011;1032;52.542;13.440;2022-07-29T10:53:23;5.10;;;2.00;;
2053;SDS011;1032;52.542;13.440;2022-07-29T10:55:51;3.00;;;1.87;;
2053;SDS011;1032;52.542;13.440;2022-07-29T10:58:18;3.33;;;1.70;;
2053;SDS011;1032;52.542;13.440;2022-07-29T11:00:46;6.17;;;1.60;;
2053;SDS011;1032;52.542;13.440;2022-07-29T11:06:08;6.43;;;2.10;;
2053;SDS011;1032;52.542;13.440;2022-07-29T11:08:36;5.37;;;2.30;;
2053;SDS011;1032;52.542;13.440;2022-07-29T11:13:57;5.70;;;2.43;;
2053;SDS011;1032;52.542;13.440;2022-07-29T11:16:23;3.53;;;2.13;;
2053;SDS011;1032;52.542;13.440;2022-07-29T11:21:45;2.93;;;1.93;;
2053;SDS011;1032;52.542;13.440;2022-07-29T11:24:16;17.83;;;2.33;;
2053;SDS011;1032;52.542;13.440;2022-07-29T11:26:46;6.50;;;2.00;;
2053;SDS011;1032;52.542;13.440;2022-07-29T11:29:39;4.90;;;2.50;;
2053;SDS011;1032;52.542;13.440;2022-07-29T11:32:14;4.73;;;2.77;;
2053;SDS011;1032;52.542;13.440;2022-07-29T11:34:42;5.17;;;2.53;;
2053;SDS011;1032;52.542;13.440;2022-07-29T11:37:16;3.70;;;2.47;;
2053;SDS011;1032;52.542;13.440;2022-07-29T11:39:47;4.37;;;2.70;;
2053;SDS011;1032;52.542;13.440;2022-07-29T11:42:36;4.30;;;2.10;;
2053;SDS011;1032;52.542;13.440;2022-07-29T11:45:05;3.47;;;2.93;;
2053;SDS011;1032;52.542;13.440;2022-07-29T11:47:35;6.53;;;2.77;;
2053;SDS011;1032;52.542;13.440;2022-07-29T11:50:03;3.77;;;2.47;;
2053;SDS011;1032;52.542;13.440;2022-07-29T11:52:32;6.10;;;2.10;;
2053;SDS011;1032;52.542;13.440;2022-07-29T11:55:04;8.47;;;2.23;;
2053;SDS011;1032;52.542;13.440;2022-07-29T11:57:33;3.50;;;2.93;;
2053;SDS011;1032;52.542;13.440;2022-07-29T12:00:00;5.27;;;2.30;;
2053;SDS011;1032;52.542;13.440;2022-07-29T12:02:37;5.83;;;2.70;;
2053;SDS011;1032;52.542;13.440;2022-07-29T12:05:07;6.80;;;2.40;;
2053;SDS011;1032;52.542;13.440;2022-07-29T12:07:34;6.70;;;2.53;;
2053;SDS011;1032;52.542;13.440;2022-07-29T12:10:02;11.00;;;2.70;;
2053;SDS011;1032;52.542;13.440;2022-07-29T12:12:30;5.73;;;2.43;;
2053;SDS011;1032;52.542;13.440;2022-07-29T12:14:57;6.00;;;2.73;;
2053;SDS011;1032;52.542;13.440;2022-07-29T12:17:27;6.00;;;2.60;;
2053;SDS011;1032;52.542;13.440;2022-07-29T12:19:55;4.57;;;3.93;;
2053;SDS011;1032;52.542;13.440;2022-07-29T12:22:25;3.80;;;2.87;;
2053;SDS011;1032;52.542;13.440;2022-07-29T12:24:52;6.60;;;3.60;;
2053;SDS011;1032;52.542;13.440;2022-07-29T12:27:20;5.80;;;3.10;;
2053;SDS011;1032;52.542;13.440;2022-07-29T12:29:54;7.10;;;2.93;;
2053;SDS011;1032;52.542;13.440;2022-07-29T12:32:22;3.73;;;3.30;;
2053;SDS011;1032;52.542;13.440;2022-07-29T12:34:49;8.27;;;3.60;;
2053;SDS011;1032;52.542;13.440;2022-07-29T12:37:16;4.20;;;3.03;;
2053;SDS011;1032;52.542;13.440;2022-07-29T12:39:43;5.73;;;3.83;;
2053;SDS011;1032;52.542;13.440;2022-07-29T12:42:11;4.03;;;2.77;;
2053;SDS011;1032;52.542;13.440;2022-07-29T12:44:46;6.93;;;3.30;;
2053;SDS011;1032;52.542;13.440;2022-07-29T12:47:14;7.43;;;3.33;;
2053;SDS011;1032;52.542;13.440;2022-07-29T12:49:41;4.80;;;2.50;;
2053;SDS011;1032;52.542;13.440;2022-07-29T12:52:23;6.60;;;2.87;;
2053;SDS011;1032;52.542;13.440;2022-07-29T12:54:50;4.80;;;3.20;;
2053;SDS011;1032;52.542;13.440;2022-07-29T12:57:17;5.20;;;3.47;;
2053;SDS011;1032;52.542;13.440;2022-07-29T12:59:43;5.13;;;3.40;;
2053;SDS011;1032;52.542;13.440;2022-07-29T13:02:24;9.20;;;2.77;;
2053;SDS011;1032;52.542;13.440;2022-07-29T13:04:54;7.20;;;3.20;;
2053;SDS011;1032;52.542;13.440;2022-07-29T13:07:23;5.20;;;2.93;;
2053;SDS011;1032;52.542;13.440;2022-07-29T13:09:51;5.33;;;3.07;;
2053;SDS011;1032;52.542;13.440;2022-07-29T13:12:17;7.80;;;3.17;;
2053;SDS011;1032;52.542;13.440;2022-07-29T13:14:47;6.77;;;2.83;;
2053;SDS011;1032;52.542;13.440;2022-07-29T13:17:15;5.33;;;2.80;;
2053;SDS011;1032;52.542;13.440;2022-07-29T13:19:43;4.97;;;2.70;;
2053;SDS011;1032;52.542;13.440;2022-07-29T13:22:13;3.40;;;3.03;;
2053;SDS011;1032;52.542;13.440;2022-07-29T13:24:47;11.13;;;3.73;;
2053;SDS011;1032;52.542;13.440;2022-07-29T13:27:14;3.30;;;2.70;;
2053;SDS011;1032;52.542;13.440;2022-07-29T13:29:42;4.03;;;3.30;;
2053;SDS011;1032;52.542;13.440;2022-07-29T13:32:10;3.20;;;2.50;;
2053;SDS011;1032;52.542;13.440;2022-07-29T13:34:37;6.70;;;2.97;;
2053;SDS011;1032;52.542;13.440;2022-07-29T13:37:04;8.17;;;3.20;;
2053;SDS011;1032;52.542;13.440;2022-07-29T13:39:31;5.23;;;3.03;;
2053;SDS011;1032;52.542;13.440;2022-07-29T13:41:57;7.00;;;3.63;;
2053;SDS011;1032;52.542;13.440;2022-07-29T13:44:24;4.13;;;3.10;;
2053;SDS011;1032;52.542;13.440;2022-07-29T13:46:51;8.90;;;3.60;;
2053;SDS011;1032;52.542;13.440;2022-07-29T13:49:18;4.23;;;3.30;;
2053;SDS011;1032;52.542;13.440;2022-07-29T13:51:47;8.20;;;3.17;;
2053;SDS011;1032;52.542;13.440;2022-07-29T13:54:14;4.10;;;3.13;;
2053;SDS011;1032;52.542;13.440;2022-07-29T13:56:41;4.87;;;2.83;;
2053;SDS011;1032;52.542;13.440;2022-07-29T13:59:07;5.60;;;3.20;;
2053;SDS011;1032;52.542;13.440;2022-07-29T14:01:34;5.50;;;3.00;;
2053;SDS011;1032;52.542;13.440;2022-07-29T14:04:02;4.37;;;3.20;;
2053;SDS011;1032;52.542;13.440;2022-07-29T14:06:30;7.07;;;2.80;;
2053;SDS011;1032;52.542;13.440;2022-07-29T14:08:56;5.97;;;3.47;;
2053;SDS011;1032;52.542;13.440;2022-07-29T14:11:23;5.03;;;3.37;;
2053;SDS011;1032;52.542;13.440;2022-07-29T14:13:50;9.40;;;3.87;;
2053;SDS011;1032;52.542;13.440;2022-07-29T14:16:17;4.70;;;3.07;;
2053;SDS011;1032;52.542;13.440;2022-07-29T14:18:43;8.20;;;3.53;;
2053;SDS011;1032;52.542;13.440;2022-07-29T14:21:10;5.83;;;3.83;;
2053;SDS011;1032;52.542;13.440;2022-07-29T14:23:38;6.30;;;3.17;;
2053;SDS011;1032;52.542;13.440;2022-07-29T14:26:05;6.70;;;3.13;;
2053;SDS011;1032;52.542;13.440;2022-07-29T14:28:32;4.00;;;3.60;;
2053;SDS011;1032;52.542;13.440;2022-07-29T14:30:59;5.57;;;2.80;;
2053;SDS011;1032;52.542;13.440;2022-07-29T14:33:25;7.83;;;3.47;;
2053;SDS011;1032;52.542;13.440;2022-07-29T14:35:52;8.93;;;3.27;;
2053;SDS011;1032;52.542;13.440;2022-07-29T14:38:19;6.93;;;3.17;;
2053;SDS011;1032;52.542;13.440;2022-07-29T14:40:47;8.20;;;3.13;;
2053;SDS011;1032;52.542;13.440;2022-07-29T14:43:13;7.20;;;3.20;;
2053;SDS011;1032;52.542;13.440;2022-07-29T14:45:40;5.40;;;3.20;;
2053;SDS011;1032;52.542;13.440;2022-07-29T14:48:07;6.80;;;3.40;;
2053;SDS011;1032;52.542;13.440;2022-07-29T14:50:34;7.30;;;4.17;;
2053;SDS011;1032;52.542;13.440;2022-07-29T14:53:02;3.87;;;3.10;;
2053;SDS011;1032;52.542;13.440;2022-07-29T14:55:29;3.90;;;3.33;;
2053;SDS011;1032;52.542;13.440;2022-07-29T14:57:57;6.93;;;3.47;;
2053;SDS011;1032;52.542;13.440;2022-07-29T15:00:24;4.87;;;3.20;;
2053;SDS011;1032;52.542;13.440;2022-07-29T15:02:51;5.60;;;3.40;;
2053;SDS011;1032;52.542;13.440;2022-07-29T15:05:18;5.57;;;3.20;;
2053;SDS011;1032;52.542;13.440;2022-07-29T15:07:44;3.60;;;2.90;;
2053;SDS011;1032;52.542;13.440;2022-07-29T15:10:11;4.90;;;3.70;;
2053;SDS011;1032;52.542;13.440;2022-07-29T15:12:38;6.93;;;3.23;;
2053;SDS011;1032;52.542;13.440;2022-07-29T15:15:07;5.20;;;2.80;;
2053;SDS011;1032;52.542;13.440;2022-07-29T15:17:34;5.10;;;3.20;;
2053;SDS011;1032;52.542;13.440;2022-07-29T15:20:00;5.17;;;3.10;;
2053;SDS011;1032;52.542;13.440;2022-07-29T15:22:27;5.10;;;2.90;;
2053;SDS011;1032;52.542;13.440;2022-07-29T15:24:54;5.63;;;3.03;;